sensor_id;sensor_type;location;lat;lon;timestamp;P1;durP1;ratioP1;P2;durP2;ratioP2
57233;SDS011;43090;52.604;13.318;2023-06-14T00:02:18;5.00;;;1.70;;
57233;SDS011;43090;52.604;13.318;2023-06-14T00:07:14;8.15;;;2.25;;
57233;SDS011;43090;52.604;13.318;2023-06-14T00:09:43;3.45;;;1.95;;
57233;SDS011;43090;52.604;13.318;2023-06-14T00:12:09;3.67;;;2.15;;
57233;SDS011;43090;52.604;13.318;2023-06-14T00:14:36;2.90;;;1.73;;
57233;SDS011;43090;52.604;13.318;2023-06-14T00:17:02;4.20;;;2.22;;
57233;SDS011;43090;52.604;13.318;2023-06-14T00:22:00;3.22;;;1.77;;
57233;SDS011;43090;52.604;13.318;2023-06-14T00:24:38;2.88;;;1.85;;
57233;SDS011;43090;52.604;13.318;2023-06-14T00:27:05;4.88;;;2.20;;
57233;SDS011;43090;52.604;13.318;2023-06-14T00:29:33;4.43;;;2.15;;
57233;SDS011;43090;52.604;13.318;2023-06-14T00:31:59;8.18;;;3.13;;
57233;SDS011;43090;52.604;13.318;2023-06-14T00:34:26;3.88;;;2.22;;
57233;SDS011;43090;52.604;13.318;2023-06-14T00:36:53;2.85;;;1.73;;
57233;SDS011;43090;52.604;13.318;2023-06-14T00:39:19;5.75;;;1.60;;
57233;SDS011;43090;52.604;13.318;2023-06-14T00:41:46;4.78;;;1.75;;
57233;SDS011;43090;52.604;13.318;2023-06-14T00:44:13;3.05;;;2.00;;
57233;SDS011;43090;52.604;13.318;2023-06-14T00:46:42;4.40;;;2.10;;
57233;SDS011;43090;52.604;13.318;2023-06-14T00:49:10;3.85;;;1.90;;
57233;SDS011;43090;52.604;13.318;2023-06-14T00:51:41;11.45;;;2.10;;
57233;SDS011;43090;52.604;13.318;2023-06-14T00:54:08;4.25;;;2.50;;
57233;SDS011;43090;52.604;13.318;2023-06-14T00:56:36;4.68;;;1.90;;
57233;SDS011;43090;52.604;13.318;2023-06-14T00:59:03;7.05;;;2.30;;
57233;SDS011;43090;52.604;13.318;2023-06-14T01:01:30;3.42;;;2.33;;
57233;SDS011;43090;52.604;13.318;2023-06-14T01:04:00;4.80;;;1.95;;
57233;SDS011;43090;52.604;13.318;2023-06-14T01:06:31;7.00;;;2.42;;
57233;SDS011;43090;52.604;13.318;2023-06-14T01:15:10;4.82;;;2.10;;
57233;SDS011;43090;52.604;13.318;2023-06-14T01:17:39;3.30;;;1.85;;
57233;SDS011;43090;52.604;13.318;2023-06-14T01:20:10;3.53;;;2.40;;
57233;SDS011;43090;52.604;13.318;2023-06-14T01:22:48;4.28;;;2.28;;
57233;SDS011;43090;52.604;13.318;2023-06-14T01:25:19;3.42;;;2.38;;
57233;SDS011;43090;52.604;13.318;2023-06-14T01:27:48;7.90;;;2.30;;
57233;SDS011;43090;52.604;13.318;2023-06-14T01:30:15;5.40;;;2.60;;
57233;SDS011;43090;52.604;13.318;2023-06-14T01:32:43;5.20;;;2.60;;
57233;SDS011;43090;52.604;13.318;2023-06-14T01:35:10;3.75;;;2.20;;
57233;SDS011;43090;52.604;13.318;2023-06-14T01:51:51;10.10;;;2.92;;
57233;SDS011;43090;52.604;13.318;2023-06-14T01:54:18;4.40;;;2.13;;
57233;SDS011;43090;52.604;13.318;2023-06-14T01:56:44;7.15;;;2.47;;
57233;SDS011;43090;52.604;13.318;2023-06-14T02:01:38;4.97;;;2.05;;
57233;SDS011;43090;52.604;13.318;2023-06-14T02:04:04;7.63;;;2.70;;
57233;SDS011;43090;52.604;13.318;2023-06-14T02:06:31;4.57;;;2.70;;
57233;SDS011;43090;52.604;13.318;2023-06-14T02:08:57;7.28;;;2.65;;
57233;SDS011;43090;52.604;13.318;2023-06-14T02:11:24;6.47;;;2.50;;
57233;SDS011;43090;52.604;13.318;2023-06-14T02:13:51;4.60;;;2.70;;
57233;SDS011;43090;52.604;13.318;2023-06-14T02:16:18;5.25;;;2.70;;
57233;SDS011;43090;52.604;13.318;2023-06-14T02:18:44;3.78;;;2.38;;
57233;SDS011;43090;52.604;13.318;2023-06-14T02:23:37;10.77;;;3.00;;
57233;SDS011;43090;52.604;13.318;2023-06-14T02:26:04;5.10;;;2.65;;
57233;SDS011;43090;52.604;13.318;2023-06-14T02:28:30;12.00;;;2.88;;
57233;SDS011;43090;52.604;13.318;2023-06-14T02:30:57;5.70;;;3.15;;
57233;SDS011;43090;52.604;13.318;2023-06-14T02:33:24;5.78;;;2.72;;
57233;SDS011;43090;52.604;13.318;2023-06-14T02:35:51;5.70;;;2.90;;
57233;SDS011;43090;52.604;13.318;2023-06-14T02:38:19;4.97;;;2.75;;
57233;SDS011;43090;52.604;13.318;2023-06-14T02:43:12;9.15;;;3.17;;
57233;SDS011;43090;52.604;13.318;2023-06-14T02:45:39;7.35;;;2.60;;
57233;SDS011;43090;52.604;13.318;2023-06-14T02:48:06;5.55;;;2.90;;
57233;SDS011;43090;52.604;13.318;2023-06-14T02:50:33;8.23;;;3.35;;
57233;SDS011;43090;52.604;13.318;2023-06-14T02:53:00;10.73;;;3.58;;
57233;SDS011;43090;52.604;13.318;2023-06-14T02:57:54;4.93;;;2.80;;
57233;SDS011;43090;52.604;13.318;2023-06-14T03:00:20;7.72;;;3.05;;
57233;SDS011;43090;52.604;13.318;2023-06-14T03:02:47;4.82;;;3.22;;
57233;SDS011;43090;52.604;13.318;2023-06-14T03:07:40;10.10;;;3.58;;
57233;SDS011;43090;52.604;13.318;2023-06-14T03:10:08;8.85;;;3.25;;
57233;SDS011;43090;52.604;13.318;2023-06-14T03:12:35;6.45;;;3.58;;
57233;SDS011;43090;52.604;13.318;2023-06-14T03:15:03;11.63;;;3.53;;
57233;SDS011;43090;52.604;13.318;2023-06-14T03:17:30;7.43;;;3.40;;
57233;SDS011;43090;52.604;13.318;2023-06-14T03:19:59;9.02;;;3.17;;
57233;SDS011;43090;52.604;13.318;2023-06-14T03:22:26;7.47;;;3.15;;
57233;SDS011;43090;52.604;13.318;2023-06-14T03:24:54;8.98;;;4.05;;
57233;SDS011;43090;52.604;13.318;2023-06-14T03:27:21;4.78;;;3.08;;
57233;SDS011;43090;52.604;13.318;2023-06-14T03:29:47;5.38;;;3.20;;
57233;SDS011;43090;52.604;13.318;2023-06-14T03:32:14;6.95;;;2.88;;
57233;SDS011;43090;52.604;13.318;2023-06-14T03:34:41;5.43;;;3.45;;
57233;SDS011;43090;52.604;13.318;2023-06-14T03:37:07;7.72;;;3.20;;
57233;SDS011;43090;52.604;13.318;2023-06-14T03:42:01;6.03;;;3.58;;
57233;SDS011;43090;52.604;13.318;2023-06-14T03:44:27;9.40;;;3.05;;
57233;SDS011;43090;52.604;13.318;2023-06-14T03:49:20;6.47;;;3.42;;
57233;SDS011;43090;52.604;13.318;2023-06-14T03:51:47;5.53;;;3.10;;
57233;SDS011;43090;52.604;13.318;2023-06-14T03:54:17;6.30;;;3.28;;
57233;SDS011;43090;52.604;13.318;2023-06-14T03:57:04;10.10;;;3.78;;
57233;SDS011;43090;52.604;13.318;2023-06-14T03:59:32;4.68;;;3.20;;
57233;SDS011;43090;52.604;13.318;2023-06-14T04:01:58;4.70;;;3.30;;
57233;SDS011;43090;52.604;13.318;2023-06-14T04:04:25;8.07;;;3.50;;
57233;SDS011;43090;52.604;13.318;2023-06-14T04:06:55;7.25;;;3.20;;
57233;SDS011;43090;52.604;13.318;2023-06-14T04:09:27;5.50;;;3.58;;
57233;SDS011;43090;52.604;13.318;2023-06-14T04:11:53;4.32;;;3.00;;
57233;SDS011;43090;52.604;13.318;2023-06-14T04:14:20;7.72;;;3.58;;
57233;SDS011;43090;52.604;13.318;2023-06-14T04:16:46;11.23;;;4.00;;
57233;SDS011;43090;52.604;13.318;2023-06-14T04:19:14;5.68;;;3.42;;
57233;SDS011;43090;52.604;13.318;2023-06-14T04:21:44;11.77;;;3.78;;
57233;SDS011;43090;52.604;13.318;2023-06-14T04:24:11;11.05;;;4.13;;
57233;SDS011;43090;52.604;13.318;2023-06-14T04:26:43;6.28;;;3.80;;
57233;SDS011;43090;52.604;13.318;2023-06-14T04:29:11;13.25;;;3.90;;
57233;SDS011;43090;52.604;13.318;2023-06-14T04:31:43;8.48;;;3.95;;
57233;SDS011;43090;52.604;13.318;2023-06-14T04:34:10;7.85;;;3.58;;
57233;SDS011;43090;52.604;13.318;2023-06-14T04:36:42;7.18;;;3.85;;
57233;SDS011;43090;52.604;13.318;2023-06-14T04:39:19;7.28;;;4.22;;
57233;SDS011;43090;52.604;13.318;2023-06-14T04:41:49;11.57;;;3.92;;
57233;SDS011;43090;52.604;13.318;2023-06-14T04:44:23;11.90;;;4.30;;
57233;SDS011;43090;52.604;13.318;2023-06-14T04:46:56;13.70;;;4.30;;
57233;SDS011;43090;52.604;13.318;2023-06-14T04:49:25;9.70;;;4.38;;
57233;SDS011;43090;52.604;13.318;2023-06-14T04:51:53;10.30;;;4.00;;
57233;SDS011;43090;52.604;13.318;2023-06-14T04:54:28;11.18;;;4.57;;
57233;SDS011;43090;52.604;13.318;2023-06-14T04:56:57;7.35;;;4.05;;
57233;SDS011;43090;52.604;13.318;2023-06-14T04:59:24;7.82;;;4.35;;
57233;SDS011;43090;52.604;13.318;2023-06-14T05:01:51;7.10;;;4.32;;
57233;SDS011;43090;52.604;13.318;2023-06-14T05:04:19;8.43;;;5.03;;
57233;SDS011;43090;52.604;13.318;2023-06-14T05:06:47;6.63;;;4.50;;
57233;SDS011;43090;52.604;13.318;2023-06-14T05:09:17;10.60;;;4.95;;
57233;SDS011;43090;52.604;13.318;2023-06-14T05:11:44;7.00;;;3.75;;
57233;SDS011;43090;52.604;13.318;2023-06-14T05:16:38;10.02;;;4.43;;
57233;SDS011;43090;52.604;13.318;2023-06-14T05:19:05;5.25;;;3.78;;
57233;SDS011;43090;52.604;13.318;2023-06-14T05:21:32;7.80;;;4.75;;
57233;SDS011;43090;52.604;13.318;2023-06-14T05:24:08;9.77;;;4.30;;
57233;SDS011;43090;52.604;13.318;2023-06-14T05:26:35;10.20;;;4.55;;
57233;SDS011;43090;52.604;13.318;2023-06-14T05:29:02;7.72;;;4.63;;
57233;SDS011;43090;52.604;13.318;2023-06-14T05:31:29;7.85;;;4.50;;
57233;SDS011;43090;52.604;13.318;2023-06-14T05:33:55;9.60;;;4.55;;
57233;SDS011;43090;52.604;13.318;2023-06-14T05:36:22;5.97;;;4.40;;
57233;SDS011;43090;52.604;13.318;2023-06-14T05:41:24;9.73;;;4.68;;
57233;SDS011;43090;52.604;13.318;2023-06-14T05:43:54;9.90;;;4.43;;
57233;SDS011;43090;52.604;13.318;2023-06-14T05:46:22;7.68;;;4.53;;
57233;SDS011;43090;52.604;13.318;2023-06-14T05:48:52;6.32;;;3.88;;
57233;SDS011;43090;52.604;13.318;2023-06-14T05:51:19;8.63;;;4.32;;
57233;SDS011;43090;52.604;13.318;2023-06-14T05:53:48;18.75;;;5.95;;
57233;SDS011;43090;52.604;13.318;2023-06-14T05:56:15;15.05;;;5.07;;
57233;SDS011;43090;52.604;13.318;2023-06-14T05:58:49;7.25;;;4.55;;
57233;SDS011;43090;52.604;13.318;2023-06-14T06:01:17;15.20;;;4.72;;
57233;SDS011;43090;52.604;13.318;2023-06-14T06:03:43;16.90;;;5.38;;
57233;SDS011;43090;52.604;13.318;2023-06-14T06:06:14;11.05;;;4.72;;
57233;SDS011;43090;52.604;13.318;2023-06-14T06:11:07;14.10;;;5.13;;
57233;SDS011;43090;52.604;13.318;2023-06-14T06:13:35;9.85;;;4.03;;
57233;SDS011;43090;52.604;13.318;2023-06-14T06:16:02;7.13;;;3.97;;
57233;SDS011;43090;52.604;13.318;2023-06-14T06:18:29;8.10;;;4.32;;
57233;SDS011;43090;52.604;13.318;2023-06-14T06:23:22;12.30;;;4.53;;
57233;SDS011;43090;52.604;13.318;2023-06-14T06:25:49;7.57;;;4.05;;
57233;SDS011;43090;52.604;13.318;2023-06-14T06:28:16;9.73;;;4.25;;
57233;SDS011;43090;52.604;13.318;2023-06-14T06:30:42;11.20;;;3.83;;
57233;SDS011;43090;52.604;13.318;2023-06-14T06:33:09;10.93;;;4.57;;
57233;SDS011;43090;52.604;13.318;2023-06-14T06:35:35;10.02;;;4.18;;
57233;SDS011;43090;52.604;13.318;2023-06-14T06:38:02;10.50;;;4.93;;
57233;SDS011;43090;52.604;13.318;2023-06-14T06:40:29;13.27;;;4.47;;
57233;SDS011;43090;52.604;13.318;2023-06-14T06:42:55;14.20;;;4.57;;
57233;SDS011;43090;52.604;13.318;2023-06-14T06:45:22;9.93;;;5.00;;
57233;SDS011;43090;52.604;13.318;2023-06-14T06:47:50;7.45;;;4.40;;
57233;SDS011;43090;52.604;13.318;2023-06-14T06:50:18;8.95;;;4.75;;
57233;SDS011;43090;52.604;13.318;2023-06-14T06:52:46;7.68;;;4.43;;
57233;SDS011;43090;52.604;13.318;2023-06-14T06:55:13;11.43;;;4.22;;
57233;SDS011;43090;52.604;13.318;2023-06-14T06:57:43;10.15;;;4.43;;
57233;SDS011;43090;52.604;13.318;2023-06-14T07:00:10;7.53;;;4.07;;
57233;SDS011;43090;52.604;13.318;2023-06-14T07:02:37;13.93;;;4.75;;
57233;SDS011;43090;52.604;13.318;2023-06-14T07:05:03;11.50;;;4.38;;
57233;SDS011;43090;52.604;13.318;2023-06-14T07:07:31;7.35;;;3.78;;
57233;SDS011;43090;52.604;13.318;2023-06-14T07:09:58;18.75;;;4.68;;
57233;SDS011;43090;52.604;13.318;2023-06-14T07:12:26;11.32;;;4.35;;
57233;SDS011;43090;52.604;13.318;2023-06-14T07:17:19;13.32;;;4.07;;
57233;SDS011;43090;52.604;13.318;2023-06-14T07:22:13;10.93;;;4.43;;
57233;SDS011;43090;52.604;13.318;2023-06-14T07:24:39;12.07;;;4.47;;
57233;SDS011;43090;52.604;13.318;2023-06-14T07:27:07;7.47;;;4.30;;
57233;SDS011;43090;52.604;13.318;2023-06-14T07:32:00;9.48;;;4.20;;
57233;SDS011;43090;52.604;13.318;2023-06-14T07:34:27;6.00;;;3.90;;
57233;SDS011;43090;52.604;13.318;2023-06-14T07:36:53;7.63;;;3.55;;
57233;SDS011;43090;52.604;13.318;2023-06-14T07:39:20;7.43;;;4.18;;
57233;SDS011;43090;52.604;13.318;2023-06-14T07:44:13;7.90;;;3.25;;
57233;SDS011;43090;52.604;13.318;2023-06-14T07:46:40;10.32;;;4.57;;
57233;SDS011;43090;52.604;13.318;2023-06-14T07:49:07;10.40;;;4.57;;
57233;SDS011;43090;52.604;13.318;2023-06-14T07:51:34;6.13;;;4.07;;
57233;SDS011;43090;52.604;13.318;2023-06-14T07:54:00;17.20;;;4.50;;
57233;SDS011;43090;52.604;13.318;2023-06-14T07:56:28;17.80;;;5.05;;
57233;SDS011;43090;52.604;13.318;2023-06-14T07:58:55;8.82;;;4.05;;
57233;SDS011;43090;52.604;13.318;2023-06-14T08:01:21;11.65;;;3.80;;
57233;SDS011;43090;52.604;13.318;2023-06-14T08:03:50;10.30;;;4.65;;
57233;SDS011;43090;52.604;13.318;2023-06-14T08:08:43;12.55;;;4.32;;
57233;SDS011;43090;52.604;13.318;2023-06-14T08:11:10;11.85;;;3.95;;
57233;SDS011;43090;52.604;13.318;2023-06-14T08:13:36;9.02;;;4.00;;
57233;SDS011;43090;52.604;13.318;2023-06-14T08:18:31;11.75;;;4.20;;
57233;SDS011;43090;52.604;13.318;2023-06-14T08:20:59;5.53;;;3.42;;
57233;SDS011;43090;52.604;13.318;2023-06-14T08:23:25;11.73;;;4.05;;
57233;SDS011;43090;52.604;13.318;2023-06-14T08:28:19;10.23;;;3.55;;
57233;SDS011;43090;52.604;13.318;2023-06-14T08:30:45;6.60;;;3.80;;
57233;SDS011;43090;52.604;13.318;2023-06-14T08:35:42;6.43;;;3.95;;
57233;SDS011;43090;52.604;13.318;2023-06-14T08:38:10;10.77;;;4.15;;
57233;SDS011;43090;52.604;13.318;2023-06-14T08:40:38;6.10;;;3.28;;
57233;SDS011;43090;52.604;13.318;2023-06-14T08:43:08;12.77;;;4.18;;
57233;SDS011;43090;52.604;13.318;2023-06-14T08:48:02;7.03;;;3.22;;
57233;SDS011;43090;52.604;13.318;2023-06-14T08:50:29;7.03;;;3.60;;
57233;SDS011;43090;52.604;13.318;2023-06-14T08:52:59;20.30;;;3.35;;
57233;SDS011;43090;52.604;13.318;2023-06-14T08:55:28;5.47;;;3.10;;
57233;SDS011;43090;52.604;13.318;2023-06-14T08:58:01;10.13;;;3.20;;
57233;SDS011;43090;52.604;13.318;2023-06-14T09:00:30;7.75;;;3.60;;
57233;SDS011;43090;52.604;13.318;2023-06-14T09:02:57;8.73;;;3.30;;
57233;SDS011;43090;52.604;13.318;2023-06-14T09:05:25;6.65;;;3.33;;
57233;SDS011;43090;52.604;13.318;2023-06-14T09:07:53;7.65;;;4.00;;
57233;SDS011;43090;52.604;13.318;2023-06-14T09:10:21;5.72;;;3.28;;
57233;SDS011;43090;52.604;13.318;2023-06-14T09:12:49;7.10;;;3.20;;
57233;SDS011;43090;52.604;13.318;2023-06-14T09:15:18;7.82;;;3.13;;
57233;SDS011;43090;52.604;13.318;2023-06-14T09:17:44;7.53;;;3.40;;
57233;SDS011;43090;52.604;13.318;2023-06-14T09:20:12;6.57;;;3.30;;
57233;SDS011;43090;52.604;13.318;2023-06-14T09:22:45;16.85;;;3.45;;
57233;SDS011;43090;52.604;13.318;2023-06-14T09:25:12;10.05;;;3.28;;
57233;SDS011;43090;52.604;13.318;2023-06-14T09:28:06;7.97;;;2.83;;
57233;SDS011;43090;52.604;13.318;2023-06-14T09:30:33;12.55;;;3.83;;
57233;SDS011;43090;52.604;13.318;2023-06-14T09:33:00;14.80;;;3.67;;
57233;SDS011;43090;52.604;13.318;2023-06-14T09:35:27;10.25;;;3.40;;
57233;SDS011;43090;52.604;13.318;2023-06-14T09:37:57;10.73;;;3.40;;
57233;SDS011;43090;52.604;13.318;2023-06-14T09:40:26;11.10;;;3.33;;
57233;SDS011;43090;52.604;13.318;2023-06-14T09:42:53;10.38;;;3.65;;
57233;SDS011;43090;52.604;13.318;2023-06-14T09:45:25;12.05;;;4.20;;
57233;SDS011;43090;52.604;13.318;2023-06-14T09:47:56;11.57;;;3.63;;
57233;SDS011;43090;52.604;13.318;2023-06-14T09:53:05;6.90;;;3.45;;
57233;SDS011;43090;52.604;13.318;2023-06-14T09:55:37;13.15;;;4.07;;
57233;SDS011;43090;52.604;13.318;2023-06-14T09:58:05;22.25;;;4.35;;
57233;SDS011;43090;52.604;13.318;2023-06-14T10:00:33;8.65;;;3.55;;
57233;SDS011;43090;52.604;13.318;2023-06-14T10:03:03;5.43;;;3.15;;
57233;SDS011;43090;52.604;13.318;2023-06-14T10:05:37;9.73;;;3.67;;
57233;SDS011;43090;52.604;13.318;2023-06-14T10:08:09;9.70;;;3.72;;
57233;SDS011;43090;52.604;13.318;2023-06-14T10:10:39;22.27;;;4.82;;
57233;SDS011;43090;52.604;13.318;2023-06-14T10:13:06;14.73;;;3.97;;
57233;SDS011;43090;52.604;13.318;2023-06-14T10:21:43;8.57;;;3.67;;
57233;SDS011;43090;52.604;13.318;2023-06-14T10:24:25;9.55;;;3.78;;
57233;SDS011;43090;52.604;13.318;2023-06-14T10:26:57;13.13;;;3.63;;
57233;SDS011;43090;52.604;13.318;2023-06-14T10:29:29;7.97;;;3.83;;
57233;SDS011;43090;52.604;13.318;2023-06-14T10:32:00;10.18;;;4.15;;
57233;SDS011;43090;52.604;13.318;2023-06-14T10:34:28;15.73;;;4.03;;
57233;SDS011;43090;52.604;13.318;2023-06-14T10:37:03;13.68;;;4.10;;
57233;SDS011;43090;52.604;13.318;2023-06-14T10:39:30;6.38;;;3.67;;
57233;SDS011;43090;52.604;13.318;2023-06-14T10:41:57;9.43;;;3.88;;
57233;SDS011;43090;52.604;13.318;2023-06-14T10:47:09;12.43;;;3.80;;
57233;SDS011;43090;52.604;13.318;2023-06-14T10:49:56;10.07;;;4.10;;
57233;SDS011;43090;52.604;13.318;2023-06-14T10:52:50;11.75;;;3.50;;
57233;SDS011;43090;52.604;13.318;2023-06-14T10:55:17;17.75;;;4.40;;
57233;SDS011;43090;52.604;13.318;2023-06-14T10:57:49;8.40;;;4.30;;
57233;SDS011;43090;52.604;13.318;2023-06-14T11:00:21;14.13;;;4.70;;
57233;SDS011;43090;52.604;13.318;2023-06-14T11:06:08;8.82;;;3.92;;
57233;SDS011;43090;52.604;13.318;2023-06-14T11:11:31;10.05;;;4.15;;
57233;SDS011;43090;52.604;13.318;2023-06-14T11:14:01;17.45;;;3.97;;
57233;SDS011;43090;52.604;13.318;2023-06-14T11:16:31;9.63;;;4.18;;
57233;SDS011;43090;52.604;13.318;2023-06-14T11:19:02;12.98;;;3.83;;
57233;SDS011;43090;52.604;13.318;2023-06-14T11:21:32;10.82;;;3.70;;
57233;SDS011;43090;52.604;13.318;2023-06-14T11:24:01;11.88;;;3.08;;
57233;SDS011;43090;52.604;13.318;2023-06-14T11:26:29;8.70;;;3.35;;
57233;SDS011;43090;52.604;13.318;2023-06-14T11:28:57;12.82;;;3.92;;
57233;SDS011;43090;52.604;13.318;2023-06-14T11:31:26;18.95;;;4.18;;
57233;SDS011;43090;52.604;13.318;2023-06-14T11:33:57;12.15;;;3.35;;
57233;SDS011;43090;52.604;13.318;2023-06-14T11:36:26;8.70;;;3.35;;
57233;SDS011;43090;52.604;13.318;2023-06-14T11:39:00;11.80;;;3.30;;
57233;SDS011;43090;52.604;13.318;2023-06-14T11:41:35;7.00;;;3.20;;
57233;SDS011;43090;52.604;13.318;2023-06-14T11:44:03;7.18;;;3.05;;
57233;SDS011;43090;52.604;13.318;2023-06-14T11:46:30;10.40;;;3.47;;
57233;SDS011;43090;52.604;13.318;2023-06-14T11:48:58;7.13;;;3.35;;
57233;SDS011;43090;52.604;13.318;2023-06-14T11:53:52;11.70;;;4.03;;
57233;SDS011;43090;52.604;13.318;2023-06-14T11:56:22;9.95;;;2.90;;
57233;SDS011;43090;52.604;13.318;2023-06-14T11:58:59;14.05;;;2.97;;
57233;SDS011;43090;52.604;13.318;2023-06-14T12:01:30;4.80;;;2.80;;
57233;SDS011;43090;52.604;13.318;2023-06-14T12:03:59;8.80;;;3.42;;
57233;SDS011;43090;52.604;13.318;2023-06-14T12:06:30;13.60;;;2.92;;
57233;SDS011;43090;52.604;13.318;2023-06-14T12:09:06;13.95;;;3.50;;
57233;SDS011;43090;52.604;13.318;2023-06-14T12:11:38;5.28;;;3.00;;
57233;SDS011;43090;52.604;13.318;2023-06-14T12:14:08;11.38;;;3.47;;
57233;SDS011;43090;52.604;13.318;2023-06-14T12:16:37;12.30;;;3.33;;
57233;SDS011;43090;52.604;13.318;2023-06-14T12:21:41;11.88;;;3.80;;
57233;SDS011;43090;52.604;13.318;2023-06-14T12:24:09;8.38;;;3.10;;
57233;SDS011;43090;52.604;13.318;2023-06-14T12:26:39;19.52;;;3.80;;
57233;SDS011;43090;52.604;13.318;2023-06-14T12:29:10;6.13;;;3.00;;
57233;SDS011;43090;52.604;13.318;2023-06-14T12:31:40;9.77;;;3.03;;
57233;SDS011;43090;52.604;13.318;2023-06-14T12:34:10;9.52;;;2.85;;
57233;SDS011;43090;52.604;13.318;2023-06-14T12:36:39;10.13;;;2.92;;
57233;SDS011;43090;52.604;13.318;2023-06-14T12:39:14;10.25;;;3.17;;
57233;SDS011;43090;52.604;13.318;2023-06-14T12:41:43;7.22;;;3.38;;
57233;SDS011;43090;52.604;13.318;2023-06-14T12:44:11;10.85;;;3.50;;
57233;SDS011;43090;52.604;13.318;2023-06-14T12:46:44;7.80;;;2.85;;
57233;SDS011;43090;52.604;13.318;2023-06-14T12:49:11;11.25;;;3.47;;
57233;SDS011;43090;52.604;13.318;2023-06-14T12:51:42;10.02;;;3.25;;
57233;SDS011;43090;52.604;13.318;2023-06-14T12:54:09;9.65;;;3.25;;
57233;SDS011;43090;52.604;13.318;2023-06-14T12:56:38;23.35;;;3.40;;
57233;SDS011;43090;52.604;13.318;2023-06-14T12:59:05;14.55;;;3.42;;
57233;SDS011;43090;52.604;13.318;2023-06-14T13:01:35;7.75;;;3.63;;
57233;SDS011;43090;52.604;13.318;2023-06-14T13:04:10;15.70;;;3.28;;
57233;SDS011;43090;52.604;13.318;2023-06-14T13:06:38;13.70;;;3.28;;
57233;SDS011;43090;52.604;13.318;2023-06-14T13:09:05;8.50;;;2.80;;
57233;SDS011;43090;52.604;13.318;2023-06-14T13:11:39;10.82;;;3.55;;
57233;SDS011;43090;52.604;13.318;2023-06-14T13:14:09;7.03;;;2.97;;
57233;SDS011;43090;52.604;13.318;2023-06-14T13:16:50;7.50;;;2.63;;
57233;SDS011;43090;52.604;13.318;2023-06-14T13:19:20;8.23;;;2.92;;
57233;SDS011;43090;52.604;13.318;2023-06-14T13:21:47;8.32;;;3.40;;
57233;SDS011;43090;52.604;13.318;2023-06-14T13:24:16;4.10;;;2.72;;
57233;SDS011;43090;52.604;13.318;2023-06-14T13:26:42;5.75;;;2.60;;
57233;SDS011;43090;52.604;13.318;2023-06-14T13:29:12;9.88;;;3.00;;
57233;SDS011;43090;52.604;13.318;2023-06-14T13:34:06;12.20;;;2.45;;
57233;SDS011;43090;52.604;13.318;2023-06-14T13:36:39;15.15;;;2.67;;
57233;SDS011;43090;52.604;13.318;2023-06-14T13:39:10;6.82;;;2.53;;
57233;SDS011;43090;52.604;13.318;2023-06-14T13:41:37;6.22;;;3.03;;
57233;SDS011;43090;52.604;13.318;2023-06-14T13:44:04;9.35;;;2.55;;
57233;SDS011;43090;52.604;13.318;2023-06-14T13:46:34;8.98;;;2.63;;
57233;SDS011;43090;52.604;13.318;2023-06-14T13:49:01;7.35;;;2.55;;
57233;SDS011;43090;52.604;13.318;2023-06-14T13:51:28;8.95;;;3.13;;
57233;SDS011;43090;52.604;13.318;2023-06-14T13:54:00;8.57;;;3.30;;
57233;SDS011;43090;52.604;13.318;2023-06-14T13:56:31;11.73;;;3.00;;
57233;SDS011;43090;52.604;13.318;2023-06-14T13:59:00;12.88;;;3.67;;
57233;SDS011;43090;52.604;13.318;2023-06-14T14:01:27;22.13;;;3.63;;
57233;SDS011;43090;52.604;13.318;2023-06-14T14:03:55;14.07;;;2.95;;
57233;SDS011;43090;52.604;13.318;2023-06-14T14:06:22;6.88;;;3.25;;
57233;SDS011;43090;52.604;13.318;2023-06-14T14:08:49;10.50;;;3.05;;
57233;SDS011;43090;52.604;13.318;2023-06-14T14:11:17;5.60;;;3.03;;
57233;SDS011;43090;52.604;13.318;2023-06-14T14:13:44;5.25;;;2.55;;
57233;SDS011;43090;52.604;13.318;2023-06-14T14:16:12;13.05;;;2.97;;
57233;SDS011;43090;52.604;13.318;2023-06-14T14:18:39;12.95;;;3.20;;
57233;SDS011;43090;52.604;13.318;2023-06-14T14:21:20;8.70;;;3.47;;
57233;SDS011;43090;52.604;13.318;2023-06-14T14:24:00;7.57;;;3.03;;
57233;SDS011;43090;52.604;13.318;2023-06-14T14:26:36;6.95;;;2.83;;
57233;SDS011;43090;52.604;13.318;2023-06-14T14:29:03;6.25;;;3.05;;
57233;SDS011;43090;52.604;13.318;2023-06-14T14:31:30;14.25;;;4.05;;
57233;SDS011;43090;52.604;13.318;2023-06-14T14:34:03;9.80;;;3.13;;
57233;SDS011;43090;52.604;13.318;2023-06-14T14:36:31;9.23;;;3.03;;
57233;SDS011;43090;52.604;13.318;2023-06-14T14:39:08;11.40;;;3.17;;
57233;SDS011;43090;52.604;13.318;2023-06-14T14:41:38;9.65;;;2.92;;
57233;SDS011;43090;52.604;13.318;2023-06-14T14:44:08;12.70;;;3.58;;
57233;SDS011;43090;52.604;13.318;2023-06-14T14:46:35;8.75;;;2.53;;
57233;SDS011;43090;52.604;13.318;2023-06-14T14:49:02;8.23;;;3.20;;
57233;SDS011;43090;52.604;13.318;2023-06-14T14:51:30;5.90;;;2.40;;
57233;SDS011;43090;52.604;13.318;2023-06-14T14:53:57;14.05;;;3.25;;
57233;SDS011;43090;52.604;13.318;2023-06-14T14:58:50;5.68;;;2.53;;
57233;SDS011;43090;52.604;13.318;2023-06-14T15:01:17;10.50;;;4.25;;
57233;SDS011;43090;52.604;13.318;2023-06-14T15:03:44;9.93;;;3.08;;
57233;SDS011;43090;52.604;13.318;2023-06-14T15:06:28;6.97;;;3.05;;
57233;SDS011;43090;52.604;13.318;2023-06-14T15:09:07;12.73;;;3.35;;
57233;SDS011;43090;52.604;13.318;2023-06-14T15:11:38;9.57;;;3.33;;
57233;SDS011;43090;52.604;13.318;2023-06-14T15:14:04;8.48;;;3.22;;
57233;SDS011;43090;52.604;13.318;2023-06-14T15:16:31;9.23;;;2.50;;
57233;SDS011;43090;52.604;13.318;2023-06-14T15:19:01;5.07;;;2.90;;
57233;SDS011;43090;52.604;13.318;2023-06-14T15:21:28;8.38;;;2.88;;
57233;SDS011;43090;52.604;13.318;2023-06-14T15:26:21;15.75;;;2.97;;
57233;SDS011;43090;52.604;13.318;2023-06-14T15:28:54;8.93;;;3.33;;
57233;SDS011;43090;52.604;13.318;2023-06-14T15:31:23;6.38;;;2.67;;
57233;SDS011;43090;52.604;13.318;2023-06-14T15:33:55;10.82;;;3.28;;
57233;SDS011;43090;52.604;13.318;2023-06-14T15:36:22;7.57;;;2.83;;
57233;SDS011;43090;52.604;13.318;2023-06-14T15:41:15;11.30;;;2.80;;
57233;SDS011;43090;52.604;13.318;2023-06-14T15:43:46;7.57;;;3.03;;
57233;SDS011;43090;52.604;13.318;2023-06-14T15:46:15;8.35;;;3.15;;
57233;SDS011;43090;52.604;13.318;2023-06-14T15:48:49;10.57;;;3.60;;
57233;SDS011;43090;52.604;13.318;2023-06-14T15:51:16;12.02;;;3.47;;
57233;SDS011;43090;52.604;13.318;2023-06-14T15:53:43;8.10;;;2.95;;
57233;SDS011;43090;52.604;13.318;2023-06-14T15:56:10;21.42;;;4.15;;
57233;SDS011;43090;52.604;13.318;2023-06-14T15:58:37;10.43;;;2.70;;
57233;SDS011;43090;52.604;13.318;2023-06-14T16:01:04;8.95;;;3.33;;
57233;SDS011;43090;52.604;13.318;2023-06-14T16:03:31;7.30;;;2.55;;
57233;SDS011;43090;52.604;13.318;2023-06-14T16:05:58;8.90;;;3.38;;
57233;SDS011;43090;52.604;13.318;2023-06-14T16:08:25;11.55;;;3.22;;
57233;SDS011;43090;52.604;13.318;2023-06-14T16:11:05;6.38;;;3.22;;
57233;SDS011;43090;52.604;13.318;2023-06-14T16:13:32;6.50;;;3.10;;
57233;SDS011;43090;52.604;13.318;2023-06-14T16:15:59;7.70;;;3.17;;
57233;SDS011;43090;52.604;13.318;2023-06-14T16:18:27;12.23;;;3.42;;
57233;SDS011;43090;52.604;13.318;2023-06-14T16:20:53;10.07;;;3.42;;
57233;SDS011;43090;52.604;13.318;2023-06-14T16:23:21;13.52;;;3.13;;
57233;SDS011;43090;52.604;13.318;2023-06-14T16:25:48;15.27;;;3.85;;